Time;durP1;ratioP1;P1;durP2;ratioP2;P2;SDS_P1;SDS_P2;PMS_P1;PMS_P2;Temp;Humidity;BMP_temperature;BMP_pressure;BME280_temperature;BME280_humidity;BME280_pressure;Samples;Min_cycle;Max_cycle;Signal;HPM_P1;HPM_P2
2023/06/28 00:05:00;;;;;;;3.70;1.70;;;;;;;16.05;56.59;98785.43;223636;181;146853;-67
2023/06/28 00:10:04;;;;;;;5.30;1.80;;;;;;;16.00;56.95;98793.39;223713;182;139260;-69
2023/06/28 00:15:08;;;;;;;5.00;2.10;;;;;;;15.91;57.02;98793.13;223668;181;137423;-65
2023/06/28 00:20:12;;;;;;;3.60;1.80;;;;;;;15.82;57.40;98794.92;223709;181;144520;-67
2023/06/28 00:25:15;;;;;;;5.30;1.50;;;;;;;15.75;57.54;98795.73;223708;181;138315;-65
2023/06/28 00:30:18;;;;;;;5.20;1.70;;;;;;;15.71;57.98;98796.06;223659;182;136794;-66
2023/06/28 00:35:21;;;;;;;5.10;1.80;;;;;;;15.70;58.11;98800.27;223736;182;145955;-66
2023/06/28 00:40:25;;;;;;;4.60;1.60;;;;;;;15.69;58.48;98798.63;223666;182;140132;-66
2023/06/28 00:45:28;;;;;;;3.70;1.70;;;;;;;15.65;58.64;98802.13;223611;181;136746;-67
2023/06/28 00:50:32;;;;;;;6.50;1.70;;;;;;;15.67;58.79;98797.91;223718;182;145832;-68
2023/06/28 00:55:35;;;;;;;7.20;2.10;;;;;;;15.62;58.92;98795.21;223741;182;138194;-68
2023/06/28 01:00:39;;;;;;;4.80;2.00;;;;;;;15.58;59.09;98794.29;223642;182;137241;-64
2023/06/28 01:05:52;;;;;;;7.20;1.90;;;;;;;15.54;59.28;98789.50;223612;182;145736;-67
2023/06/28 01:11:00;;;;;;;;;;;;;;;15.51;59.38;98794.41;223572;182;138682;-64
2023/06/28 01:16:05;;;;;;;4.50;1.80;;;;;;;15.42;59.55;98790.73;223754;181;130495;-65
2023/06/28 01:21:12;;;;;;;3.30;1.80;;;;;;;15.39;59.62;98789.19;223710;182;145077;-65
2023/06/28 01:26:16;;;;;;;4.60;1.90;;;;;;;15.35;59.79;98780.92;223660;181;138740;-65
2023/06/28 01:31:20;;;;;;;4.40;2.00;;;;;;;15.32;59.92;98777.48;223763;181;137450;-65
2023/06/28 01:37:27;;;;;;;4.60;1.70;;;;;;;15.30;60.02;98773.88;221994;224;665702;-64
2023/06/28 01:42:30;;;;;;;3.10;1.80;;;;;;;15.27;60.18;98774.87;223304;186;136486;-65
2023/06/28 01:47:34;;;;;;;5.30;2.00;;;;;;;15.20;60.24;98774.56;223680;183;143516;-65
2023/06/28 01:52:37;;;;;;;3.00;1.80;;;;;;;15.14;60.56;98771.27;223693;183;139076;-68
2023/06/28 01:57:41;;;;;;;4.70;1.60;;;;;;;15.07;60.73;98780.11;223849;181;136457;-66
2023/06/28 02:02:44;;;;;;;5.90;1.90;;;;;;;15.04;60.96;98777.73;223706;181;143155;-65
2023/06/28 02:07:48;;;;;;;3.40;1.90;;;;;;;14.99;61.16;98778.17;223812;182;138780;-65
2023/06/28 02:12:52;;;;;;;7.20;2.10;;;;;;;14.99;61.13;98770.30;223911;181;136420;-66
2023/06/28 02:17:57;;;;;;;4.50;2.00;;;;;;;14.92;61.38;98773.88;223795;180;144101;-65
2023/06/28 02:23:01;;;;;;;3.50;2.00;;;;;;;14.89;61.47;98781.38;223670;181;139526;-66
2023/06/28 02:28:05;;;;;;;3.70;1.90;;;;;;;14.88;61.64;98780.29;223854;180;136419;-65
2023/06/28 02:33:08;;;;;;;3.60;2.00;;;;;;;14.84;61.72;98773.48;223809;181;145130;-65
2023/06/28 02:38:12;;;;;;;3.30;2.00;;;;;;;14.83;61.90;98778.73;223744;180;139163;-67
2023/06/28 02:43:16;;;;;;;4.10;2.20;;;;;;;14.82;61.88;98787.24;223893;180;136834;-65
2023/06/28 02:48:19;;;;;;;5.20;2.10;;;;;;;14.83;62.04;98784.13;223788;181;146241;-63
2023/06/28 02:53:23;;;;;;;5.00;2.20;;;;;;;14.77;62.16;98785.87;223781;181;138281;-71
2023/06/28 02:58:26;;;;;;;3.70;1.70;;;;;;;14.70;62.40;98788.59;223790;181;136483;-65
2023/06/28 03:03:33;;;;;;;4.90;2.00;;;;;;;14.69;62.69;98792.27;223698;181;145741;-65
2023/06/28 03:08:37;;;;;;;5.80;1.90;;;;;;;14.70;62.82;98793.05;223739;181;138027;-66
2023/06/28 03:13:40;;;;;;;5.70;2.20;;;;;;;14.73;62.75;98784.96;223861;181;136226;-65
2023/06/28 03:18:44;;;;;;;4.90;2.20;;;;;;;14.78;62.53;98784.90;223740;181;145285;-65
2023/06/28 03:23:47;;;;;;;4.50;2.10;;;;;;;14.83;62.41;98784.66;223753;181;138299;-66
2023/06/28 03:28:51;;;;;;;7.80;2.00;;;;;;;14.88;62.20;98782.81;223800;181;137192;-66
2023/06/28 03:33:54;;;;;;;5.40;1.90;;;;;;;14.99;62.18;98774.92;223793;181;145481;-65
2023/06/28 03:38:58;;;;;;;2.70;1.80;;;;;;;15.07;61.96;98776.74;223708;181;138394;-66
2023/06/28 03:44:02;;;;;;;7.90;2.10;;;;;;;15.13;61.74;98777.95;223815;181;136076;-66
2023/06/28 03:50:47;;;;;;;7.80;2.10;;;;;;;15.17;61.65;98781.08;221641;194;665481;-66
2023/06/28 03:55:50;;;;;;;4.10;1.80;;;;;;;15.14;61.71;98778.05;223484;185;137217;-65
2023/06/28 04:00:54;;;;;;;4.10;2.00;;;;;;;15.19;61.72;98774.80;223456;184;143857;-65
2023/06/28 04:05:57;;;;;;;4.90;2.40;;;;;;;15.24;61.70;98771.02;223533;185;138356;-67
2023/06/28 04:11:01;;;;;;;3.70;2.00;;;;;;;15.33;61.71;98772.02;223439;185;135664;-67
2023/06/28 04:16:04;;;;;;;9.50;2.40;;;;;;;15.46;61.44;98771.97;223817;183;143314;-67
2023/06/28 04:21:08;;;;;;;6.80;2.20;;;;;;;15.57;61.33;98772.05;223641;183;138365;-68
2023/06/28 04:26:12;;;;;;;3.00;2.10;;;;;;;15.69;61.00;98774.13;223657;183;136088;-66
2023/06/28 04:31:16;;;;;;;3.60;1.90;;;;;;;15.74;60.89;98777.91;223718;183;143321;-68
2023/06/28 04:36:21;;;;;;;100.50;76.60;;;;;;;15.83;60.72;98780.19;223698;183;138730;-70
2023/06/28 04:41:25;;;;;;;6.10;3.60;;;;;;;15.96;60.60;98776.95;223688;183;136723;-68
2023/06/28 04:46:29;;;;;;;11.40;4.00;;;;;;;16.00;60.30;98775.29;223639;183;145318;-69
2023/06/28 04:51:32;;;;;;;5.40;2.30;;;;;;;16.04;60.26;98781.19;223555;183;138713;-71
2023/06/28 04:56:37;;;;;;;6.20;2.60;;;;;;;16.14;60.21;98781.03;223714;183;136916;-70
2023/06/28 05:01:41;;;;;;;4.20;1.80;;;;;;;16.23;59.91;98783.28;223559;182;146727;-69
2023/06/28 05:06:45;;;;;;;5.90;2.10;;;;;;;16.37;59.98;98776.96;223748;182;139053;-68
2023/06/28 05:11:48;;;;;;;5.20;1.60;;;;;;;16.61;59.35;98767.27;223713;182;137755;-66
2023/06/28 05:16:52;;;;;;;5.50;1.80;;;;;;;16.61;58.55;98771.42;223670;182;146084;-66
2023/06/28 05:21:55;;;;;;;6.10;1.80;;;;;;;16.60;58.52;98768.66;223637;182;138493;-67
2023/06/28 05:26:58;;;;;;;3.50;1.40;;;;;;;16.61;58.51;98769.42;223819;182;136397;-68
2023/06/28 05:32:02;;;;;;;5.90;1.40;;;;;;;16.61;58.43;98767.48;223784;182;146498;-68
2023/06/28 05:37:06;;;;;;;63.90;52.80;;;;;;;16.60;58.42;98770.66;223787;182;139929;-67
2023/06/28 05:42:09;;;;;;;6.40;3.10;;;;;;;16.58;58.55;98771.36;223706;181;136955;-67
2023/06/28 05:47:13;;;;;;;4.30;1.90;;;;;;;16.64;58.81;98769.73;223720;183;145372;-72
2023/06/28 05:52:17;;;;;;;38.20;31.20;;;;;;;16.63;58.65;98770.21;223535;181;138426;-68
2023/06/28 05:57:20;;;;;;;4.90;2.10;;;;;;;16.67;58.98;98768.53;223763;182;136813;-66
2023/06/28 06:02:27;;;;;;;4.90;2.20;;;;;;;16.71;58.79;98771.07;223635;182;145220;-66
2023/06/28 06:07:34;;;;;;;5.60;1.60;;;;;;;16.78;59.03;98776.67;223772;182;138439;-65
2023/06/28 06:12:37;;;;;;;7.60;2.00;;;;;;;16.92;58.94;98775.79;223734;182;137482;-64
2023/06/28 06:17:41;;;;;;;5.40;1.80;;;;;;;16.95;58.78;98774.94;223722;182;145305;-66
2023/06/28 06:22:44;;;;;;;7.10;2.10;;;;;;;17.03;58.73;98769.23;223673;182;138832;-67
2023/06/28 06:27:48;;;;;;;6.90;1.70;;;;;;;17.15;58.64;98766.50;223756;181;136523;-65
2023/06/28 06:32:58;;;;;;;6.20;1.90;;;;;;;17.19;58.29;98770.88;223734;181;145356;-65
2023/06/28 06:38:04;;;;;;;10.40;5.30;;;;;;;17.25;58.32;98770.54;223758;182;138961;-64
2023/06/28 06:43:08;;;;;;;7.30;2.70;;;;;;;17.34;57.75;98772.23;223671;182;136936;-64
2023/06/28 06:48:11;;;;;;;4.90;1.80;;;;;;;17.43;57.62;98769.37;223521;183;145218;-65
2023/06/28 06:53:15;;;;;;;10.60;8.50;;;;;;;17.53;57.52;98771.49;223737;182;138262;-66
2023/06/28 06:58:18;;;;;;;24.70;16.60;;;;;;;17.59;57.27;98763.92;223506;181;137594;-65
2023/06/28 07:03:22;;;;;;;3.50;1.80;;;;;;;17.66;57.31;98760.69;223600;182;146824;-65
2023/06/28 07:08:25;;;;;;;114.70;76.40;;;;;;;17.79;57.25;98764.08;223592;182;138788;-66
2023/06/28 07:13:28;;;;;;;10.60;2.60;;;;;;;17.88;56.95;98758.79;223775;182;136944;-67
2023/06/28 07:18:31;;;;;;;5.20;1.80;;;;;;;17.95;56.73;98753.30;223683;182;145183;-66
2023/06/28 07:23:35;;;;;;;4.80;1.80;;;;;;;18.01;56.20;98751.62;223707;182;138988;-64
2023/06/28 07:28:38;;;;;;;7.90;1.80;;;;;;;18.09;55.89;98751.59;223790;180;136637;-64
2023/06/28 07:33:42;;;;;;;3.40;1.50;;;;;;;18.16;55.83;98748.56;223676;182;147313;-66
2023/06/28 07:38:46;;;;;;;4.80;1.70;;;;;;;18.25;55.78;98747.75;223574;183;138864;-66
2023/06/28 07:43:50;;;;;;;10.50;4.60;;;;;;;18.32;55.44;98745.04;223736;178;136624;-64
2023/06/28 07:48:53;;;;;;;6.70;2.40;;;;;;;18.39;55.15;98746.11;223772;182;145432;-64
2023/06/28 07:53:57;;;;;;;3.50;1.60;;;;;;;18.44;54.71;98742.35;223726;182;139138;-66
2023/06/28 07:59:02;;;;;;;4.60;1.90;;;;;;;18.48;55.00;98742.35;223779;183;137052;-66
2023/06/28 08:04:06;;;;;;;6.30;1.90;;;;;;;18.49;54.82;98743.14;223535;182;146250;-66
2023/06/28 08:09:10;;;;;;;38.50;29.80;;;;;;;18.56;55.01;98740.45;223746;182;140534;-69
2023/06/28 08:14:13;;;;;;;6.80;3.40;;;;;;;18.66;55.24;98737.11;223588;182;137103;-70
2023/06/28 08:19:16;;;;;;;5.70;2.30;;;;;;;18.83;54.96;98733.48;223760;182;145332;-68
2023/06/28 08:24:19;;;;;;;10.60;2.10;;;;;;;18.91;54.82;98727.78;223668;183;138197;-66
2023/06/28 08:29:22;;;;;;;5.40;2.10;;;;;;;18.93;54.70;98723.48;223769;182;137060;-66
2023/06/28 08:34:25;;;;;;;5.40;1.90;;;;;;;18.86;54.73;98721.85;223736;182;145017;-69
2023/06/28 08:39:29;;;;;;;42.40;28.80;;;;;;;18.85;54.80;98735.23;223628;182;139210;-67
2023/06/28 08:44:33;;;;;;;7.50;3.10;;;;;;;18.80;55.04;98741.65;223732;182;136771;-68
2023/06/28 08:49:37;;;;;;;105.00;80.80;;;;;;;18.71;56.15;98726.80;222680;182;145889;-67
2023/06/28 08:54:41;;;;;;;8.30;3.70;;;;;;;18.79;56.83;98714.10;223810;182;138547;-68
2023/06/28 08:59:45;;;;;;;6.10;2.10;;;;;;;18.79;55.36;98714.88;223738;182;137125;-68
2023/06/28 09:04:50;;;;;;;5.70;2.20;;;;;;;18.71;55.43;98710.99;223641;182;145688;-68
2023/06/28 09:09:55;;;;;;;4.50;2.50;;;;;;;18.74;55.74;98701.68;223754;182;138401;-67
2023/06/28 09:14:58;;;;;;;5.60;2.00;;;;;;;18.76;55.40;98702.04;223433;183;136644;-67
2023/06/28 09:20:18;;;;;;;4.80;1.50;;;;;;;18.74;54.94;98699.70;223766;183;146165;-67
2023/06/28 09:25:24;;;;;;;6.40;1.80;;;;;;;18.81;55.18;98694.48;223708;182;138646;-70
2023/06/28 09:30:27;;;;;;;4.70;1.60;;;;;;;18.91;54.81;98694.17;223660;182;137500;-68
2023/06/28 09:35:36;;;;;;;;;;;;;;;19.06;54.21;98676.99;223655;182;145409;-68
2023/06/28 09:40:39;;;;;;;17.80;10.50;;;;;;;19.28;52.82;98675.52;223634;182;138768;-67
2023/06/28 09:45:43;;;;;;;6.40;1.60;;;;;;;19.33;50.66;98677.04;223624;182;137572;-67
2023/06/28 09:50:47;;;;;;;5.30;1.80;;;;;;;19.39;48.71;98674.70;223598;182;145690;-67
2023/06/28 09:55:51;;;;;;;75.50;56.60;;;;;;;19.44;48.14;98682.08;223609;182;138528;-67
2023/06/28 10:00:55;;;;;;;8.80;3.60;;;;;;;19.50;48.58;98675.27;223574;182;137234;-68
2023/06/28 10:05:59;;;;;;;4.70;2.60;;;;;;;19.63;48.90;98665.46;223689;181;145194;-68
2023/06/28 10:11:08;;;;;;;7.90;3.10;;;;;;;19.86;49.69;98656.59;223741;182;140135;-68
2023/06/28 10:16:18;;;;;;;5.20;1.70;;;;;;;19.89;50.28;98655.99;223686;181;136964;-67
2023/06/28 10:21:22;;;;;;;11.50;2.20;;;;;;;19.86;50.31;98665.11;223648;181;145503;-68
2023/06/28 10:26:28;;;;;;;5.40;1.40;;;;;;;19.82;50.81;98664.58;223642;182;157849;-68
2023/06/28 10:31:32;;;;;;;6.70;1.80;;;;;;;19.79;51.73;98672.49;223736;182;136581;-68
2023/06/28 10:36:36;;;;;;;6.10;1.70;;;;;;;19.73;51.89;98679.38;223706;182;144952;-69
2023/06/28 10:41:39;;;;;;;5.30;1.50;;;;;;;19.76;52.86;98681.26;223642;181;138323;-69
2023/06/28 10:46:43;;;;;;;5.70;1.60;;;;;;;19.78;51.69;98706.45;223714;182;140230;-66
2023/06/28 10:51:52;;;;;;;2.10;1.10;;;;;;;19.44;50.94;98716.57;223705;183;146493;-70
2023/06/28 10:56:58;;;;;;;4.30;0.90;;;;;;;19.00;50.92;98709.77;223668;182;138605;-72
2023/06/28 11:02:01;;;;;;;2.40;1.00;;;;;;;18.72;50.53;98709.98;223610;182;136401;-67
2023/06/28 11:07:16;;;;;;;3.40;1.20;;;;;;;18.52;50.38;98711.09;223573;181;145836;-69
2023/06/28 11:12:22;;;;;;;4.60;1.40;;;;;;;18.40;51.41;98705.96;223707;181;138246;-69
2023/06/28 11:17:31;;;;;;;5.20;1.40;;;;;;;18.49;52.06;98710.42;223608;182;136818;-69
2023/06/28 11:23:01;;;;;;;5.40;1.50;;;;;;;18.74;53.04;98705.98;223648;181;146028;-68
2023/06/28 11:28:04;;;;;;;5.30;1.60;;;;;;;19.24;53.29;98700.55;223681;182;151298;-68
2023/06/28 11:33:07;;;;;;;5.70;1.70;;;;;;;19.77;53.15;98687.58;223582;182;137114;-68
2023/06/28 11:38:12;;;;;;;6.10;1.70;;;;;;;20.29;52.24;98674.33;223713;182;145175;-71
2023/06/28 11:43:20;;;;;;;5.20;1.60;;;;;;;20.73;50.04;98667.59;223611;182;138964;-70
2023/06/28 11:48:24;;;;;;;3.30;1.40;;;;;;;20.79;48.46;98665.27;223762;182;137243;-70
2023/06/28 11:53:28;;;;;;;2.60;1.40;;;;;;;20.98;48.12;98659.42;223699;182;146711;-71
2023/06/28 11:58:36;;;;;;;4.10;1.20;;;;;;;21.35;44.57;98657.75;223727;182;139055;-70
2023/06/28 12:03:39;;;;;;;4.00;1.50;;;;;;;21.60;43.22;98660.39;223628;182;137789;-72
2023/06/28 12:08:43;;;;;;;3.40;1.50;;;;;;;21.39;43.45;98660.59;223684;182;145358;-70
2023/06/28 12:13:46;;;;;;;6.70;1.40;;;;;;;21.37;44.06;98657.75;223812;182;138415;-68
2023/06/28 12:19:00;;;;;;;5.10;3.20;;;;;;;21.60;43.71;98653.15;223429;182;137186;-68
2023/06/28 12:24:13;;;;;;;5.80;2.10;;;;;;;21.99;43.28;98649.17;223514;183;147570;-67
2023/06/28 12:29:21;;;;;;;6.70;1.60;;;;;;;22.31;43.35;98637.86;223580;182;140066;-68
2023/06/28 12:34:29;;;;;;;3.50;1.30;;;;;;;22.40;43.37;98646.80;223462;183;137302;-70
2023/06/28 12:39:34;;;;;;;9.30;1.40;;;;;;;22.26;42.52;98656.23;223625;182;148145;-68
2023/06/28 12:44:54;;;;;;;6.60;1.50;;;;;;;22.31;41.64;98656.17;223537;183;140304;-71
2023/06/28 12:49:59;;;;;;;6.10;1.40;;;;;;;22.45;40.44;98655.15;223653;183;137178;-72
2023/06/28 12:55:03;;;;;;;5.10;1.20;;;;;;;22.44;39.50;98649.95;223588;183;148477;-69
2023/06/28 13:00:12;;;;;;;4.20;1.40;;;;;;;22.80;38.83;98641.61;223615;183;138961;-68
2023/06/28 13:05:21;;;;;;;7.40;1.70;;;;;;;23.25;38.57;98635.55;223708;182;137332;-69
2023/06/28 13:10:24;;;;;;;6.30;1.50;;;;;;;23.66;38.22;98633.59;223415;183;147917;-69
2023/06/28 13:15:28;;;;;;;3.80;1.20;;;;;;;23.73;37.21;98636.36;223543;183;139101;-69
2023/06/28 13:20:32;;;;;;;4.70;1.50;;;;;;;23.62;37.36;98633.39;223632;182;138112;-69
2023/06/28 13:25:35;;;;;;;10.30;1.60;;;;;;;23.76;37.54;98636.79;223691;182;147016;-67
2023/06/28 13:30:38;;;;;;;7.80;1.40;;;;;;;23.97;37.97;98633.09;223562;182;138403;-67
2023/06/28 13:35:42;;;;;;;5.80;1.50;;;;;;;23.94;37.22;98632.40;223772;182;136881;-66
2023/06/28 13:40:46;;;;;;;4.80;1.30;;;;;;;23.51;38.31;98632.40;223639;182;147085;-69
2023/06/28 13:45:50;;;;;;;11.20;2.10;;;;;;;23.08;38.88;98638.88;223612;182;138984;-70
2023/06/28 13:50:56;;;;;;;6.80;1.60;;;;;;;22.69;39.86;98646.63;223675;183;137120;-70
2023/06/28 13:56:00;;;;;;;9.80;1.80;;;;;;;22.57;38.52;98644.77;223648;182;147629;-66
2023/06/28 14:01:04;;;;;;;4.00;1.50;;;;;;;22.80;37.66;98636.09;223523;182;138801;-66
2023/06/28 14:06:08;;;;;;;5.10;1.40;;;;;;;23.02;36.41;98632.21;223692;182;137547;-67
2023/06/28 14:11:13;;;;;;;4.40;1.20;;;;;;;23.21;34.88;98626.26;222038;187;147795;-67
2023/06/28 14:16:17;;;;;;;3.10;1.10;;;;;;;23.19;35.17;98626.30;223470;183;138875;-68
2023/06/28 14:21:20;;;;;;;3.30;0.90;;;;;;;23.25;35.12;98629.98;223510;183;138162;-67
2023/06/28 14:26:23;;;;;;;2.60;1.10;;;;;;;23.29;35.80;98633.80;223377;184;147988;-67
2023/06/28 14:31:26;;;;;;;5.90;1.90;;;;;;;23.15;36.32;98635.48;223530;183;138372;-67
2023/06/28 14:36:30;;;;;;;10.00;1.80;;;;;;;22.95;36.41;98643.40;223474;183;137119;-67
2023/06/28 14:41:33;;;;;;;6.70;1.50;;;;;;;22.78;36.73;98644.76;223403;183;149039;-68
2023/06/28 14:46:37;;;;;;;7.20;1.50;;;;;;;22.57;36.92;98644.76;223530;183;138168;-67
2023/06/28 14:51:40;;;;;;;4.80;1.60;;;;;;;22.39;38.34;98658.58;223481;183;137242;-67
2023/06/28 14:56:43;;;;;;;9.80;1.90;;;;;;;22.14;39.39;98666.71;223474;183;146956;-66
2023/06/28 15:01:47;;;;;;;9.50;1.80;;;;;;;21.89;40.45;98673.27;223489;183;138337;-66
2023/06/28 15:06:51;;;;;;;6.40;1.60;;;;;;;21.67;40.69;98682.88;223447;183;137057;-69
2023/06/28 15:11:54;;;;;;;6.00;1.40;;;;;;;21.41;40.50;98695.04;223494;183;147562;-69
2023/06/28 15:16:57;;;;;;;12.70;1.80;;;;;;;21.16;40.74;98710.31;223484;184;138295;-72
2023/06/28 15:22:01;;;;;;;4.40;1.30;;;;;;;20.84;41.06;98711.45;223390;184;138395;-68
2023/06/28 15:27:04;;;;;;;3.60;1.40;;;;;;;20.53;42.03;98723.23;223586;183;150450;-70
2023/06/28 15:32:08;;;;;;;2.60;1.20;;;;;;;20.27;42.97;98722.44;223504;183;138642;-69
2023/06/28 15:37:11;;;;;;;10.80;1.50;;;;;;;20.04;44.08;98728.17;223483;184;136653;-70
2023/06/28 15:42:15;;;;;;;4.20;1.70;;;;;;;19.83;45.01;98733.95;223482;183;148118;-68
2023/06/28 15:47:18;;;;;;;6.90;1.30;;;;;;;19.72;45.77;98734.98;223665;182;138460;-71
2023/06/28 15:52:22;;;;;;;7.50;1.20;;;;;;;19.60;46.17;98738.19;223491;182;136598;-71
2023/06/28 15:57:26;;;;;;;6.70;1.50;;;;;;;19.49;46.99;98744.70;223609;183;147496;-67
2023/06/28 16:02:29;;;;;;;2.50;1.20;;;;;;;19.38;47.81;98749.11;223514;182;140831;-68
2023/06/28 16:07:33;;;;;;;4.90;1.50;;;;;;;19.27;48.39;98753.08;223699;183;266983;-67
2023/06/28 16:12:36;;;;;;;5.10;1.40;;;;;;;19.17;49.00;98756.66;223577;182;147512;-68
2023/06/28 16:17:40;;;;;;;4.10;1.50;;;;;;;19.05;49.74;98760.40;223680;183;140613;-69
2023/06/28 16:22:45;;;;;;;5.20;1.20;;;;;;;18.96;50.17;98772.09;223505;183;137032;-68
2023/06/28 16:27:52;;;;;;;3.90;1.20;;;;;;;18.84;51.06;98774.14;223508;183;146956;-68
2023/06/28 16:32:56;;;;;;;5.30;1.10;;;;;;;18.78;51.52;98787.39;223557;182;139270;-67
2023/06/28 16:37:59;;;;;;;4.10;1.00;;;;;;;18.74;52.35;98785.63;223631;183;136911;-66
2023/06/28 16:43:06;;;;;;;5.40;0.90;;;;;;;18.68;52.88;98788.88;223584;183;148346;-66
2023/06/28 16:48:10;;;;;;;1.70;1.10;;;;;;;18.63;53.34;98788.83;223523;183;138582;-67
2023/06/28 16:53:22;;;;;;;4.40;1.90;;;;;;;18.55;54.27;98799.12;223563;183;136933;-65
2023/06/28 16:58:28;;;;;;;7.40;1.60;;;;;;;18.42;55.30;98799.14;223514;184;148182;-67
2023/06/28 17:03:31;;;;;;;6.50;1.90;;;;;;;18.32;56.22;98800.16;223520;182;138185;-66
2023/06/28 17:13:13;;;;;;;3.90;2.00;;;;;;;18.00;57.70;98803.47;222492;188;665535;-69
2023/06/28 17:18:17;;;;;;;3.80;1.90;;;;;;;17.79;58.61;98805.10;223340;184;136344;-70
2023/06/28 17:23:21;;;;;;;4.90;2.00;;;;;;;17.64;59.78;98805.40;223561;184;143473;-70
2023/06/28 17:28:24;;;;;;;4.60;1.80;;;;;;;17.56;60.20;98808.92;223496;184;139830;-70
2023/06/28 17:33:27;;;;;;;4.60;2.10;;;;;;;17.59;60.41;98816.17;223623;182;137309;-71
2023/06/28 17:38:30;;;;;;;9.70;2.90;;;;;;;17.54;60.55;98816.58;223602;182;143423;-69
2023/06/28 17:43:34;;;;;;;12.90;7.80;;;;;;;17.50;60.61;98818.40;223507;183;138668;-70
2023/06/28 17:48:37;;;;;;;6.40;2.10;;;;;;;17.42;60.87;98818.23;223694;182;140066;-68
2023/06/28 17:53:41;;;;;;;6.10;2.20;;;;;;;17.35;61.17;98818.74;223586;182;144313;-69
2023/06/28 17:58:44;;;;;;;6.10;2.30;;;;;;;17.27;61.67;98818.05;223509;182;138301;-68
2023/06/28 18:03:51;;;;;;;4.70;1.80;;;;;;;17.18;62.14;98816.38;223565;182;136795;-68
2023/06/28 18:08:55;;;;;;;4.30;2.00;;;;;;;17.15;62.68;98814.70;223571;182;145732;-70
2023/06/28 18:13:59;;;;;;;4.10;2.00;;;;;;;17.16;63.17;98814.09;223598;182;138442;-69
2023/06/28 19:13:14;;;;;;;12.10;8.70;;;;;;;16.59;68.31;98827.30;221363;192;665705;-68
2023/06/28 19:18:18;;;;;;;8.60;3.10;;;;;;;16.48;68.56;98826.69;223508;184;136912;-66
2023/06/28 19:23:22;;;;;;;4.90;2.70;;;;;;;16.37;68.73;98829.13;223610;182;143864;-67
2023/06/28 19:28:25;;;;;;;8.00;2.60;;;;;;;16.31;69.21;98832.89;223655;182;138322;-69
2023/06/28 19:33:29;;;;;;;5.80;2.90;;;;;;;16.28;69.57;98835.30;223609;183;137137;-69
2023/06/28 19:38:32;;;;;;;29.60;20.10;;;;;;;16.27;69.71;98839.08;223735;183;145042;-70
2023/06/28 19:43:35;;;;;;;5.10;3.10;;;;;;;16.25;69.96;98835.53;223608;182;138659;-70
2023/06/28 19:48:39;;;;;;;4.80;2.50;;;;;;;16.25;70.20;98837.70;223772;182;136937;-69
2023/06/28 19:53:42;;;;;;;8.20;2.80;;;;;;;16.19;70.56;98841.98;223748;182;143429;-69
2023/06/28 19:58:46;;;;;;;4.20;2.10;;;;;;;16.20;70.86;98847.98;223693;182;138840;-72
2023/06/28 20:03:49;;;;;;;6.50;3.30;;;;;;;16.22;70.97;98846.17;223593;182;137024;-69
2023/06/28 20:08:53;;;;;;;5.70;2.80;;;;;;;16.21;71.28;98851.42;223700;182;145228;-67
2023/06/28 20:13:57;;;;;;;4.20;2.50;;;;;;;16.15;71.34;98852.34;223610;182;138253;-67
2023/06/28 20:19:00;;;;;;;5.00;2.60;;;;;;;16.15;71.67;98851.14;223624;182;137161;-66
2023/06/28 20:24:04;;;;;;;5.40;2.70;;;;;;;16.16;71.87;98848.73;223549;183;145309;-66
2023/06/28 20:29:08;;;;;;;10.60;2.90;;;;;;;16.17;72.02;98852.52;223504;183;138425;-64
2023/06/28 20:34:11;;;;;;;5.70;3.10;;;;;;;16.16;72.10;98856.05;223613;182;136791;-66
2023/06/28 20:39:14;;;;;;;3.80;2.50;;;;;;;16.13;72.48;98848.63;223569;182;145715;-69
2023/06/28 20:44:18;;;;;;;5.60;2.60;;;;;;;16.17;72.79;98853.42;223655;183;231089;-66
2023/06/28 20:49:21;;;;;;;4.60;2.50;;;;;;;16.23;72.83;98857.38;223705;181;137725;-65
2023/06/28 20:54:25;;;;;;;8.20;3.10;;;;;;;16.26;72.90;98852.77;223636;181;145381;-65
2023/06/28 20:59:28;;;;;;;4.40;3.10;;;;;;;16.27;72.79;98855.92;223682;181;139162;-67
2023/06/28 21:04:32;;;;;;;5.70;2.70;;;;;;;16.28;73.01;98854.05;223659;181;137124;-70
2023/06/28 21:09:38;;;;;;;6.50;2.60;;;;;;;16.31;73.21;98856.45;223567;181;145773;-68
2023/06/28 21:14:44;;;;;;;4.60;2.70;;;;;;;16.39;73.14;98853.64;223603;181;138380;-73
2023/06/28 21:19:47;;;;;;;5.70;3.30;;;;;;;16.45;73.28;98850.56;223749;181;137560;-70
2023/06/28 21:24:51;;;;;;;3.70;3.30;;;;;;;16.49;73.28;98847.59;223697;180;145780;-69
2023/06/28 21:29:58;;;;;;;5.90;3.00;;;;;;;16.50;73.33;98849.97;223658;181;138398;-68
2023/06/28 21:35:11;;;;;;;4.90;3.10;;;;;;;16.52;73.39;98844.40;223680;181;137828;-69
2023/06/28 21:40:15;;;;;;;4.30;3.20;;;;;;;16.56;73.42;98847.48;223649;181;146774;-68
2023/06/28 21:45:18;;;;;;;5.90;3.30;;;;;;;16.54;73.49;98856.37;223619;181;138410;-69
2023/06/28 21:50:22;;;;;;;5.40;3.10;;;;;;;16.54;73.43;98861.40;223724;181;136775;-70
2023/06/28 21:55:27;;;;;;;4.00;2.70;;;;;;;16.56;73.53;98859.99;223679;182;145730;-70
2023/06/28 22:00:30;;;;;;;5.80;2.70;;;;;;;16.59;73.63;98860.85;223600;182;139387;-66
2023/06/28 22:05:33;;;;;;;5.10;2.80;;;;;;;16.66;73.53;98862.85;223704;181;137108;-67
2023/06/28 22:13:13;;;;;;;3.70;2.80;;;;;;;16.72;73.52;98858.04;220245;192;667306;-67
2023/06/28 22:18:19;;;;;;;4.10;2.60;;;;;;;16.63;73.61;98860.30;223512;184;139293;-65
2023/06/28 22:23:24;;;;;;;3.70;2.70;;;;;;;16.62;73.89;98857.53;223612;183;144113;-67
2023/06/28 22:28:28;;;;;;;3.00;2.30;;;;;;;16.63;74.03;98857.20;223863;180;138484;-66
2023/06/28 22:33:31;;;;;;;3.00;2.60;;;;;;;16.66;74.12;98856.63;224023;180;137184;-66
2023/06/28 22:38:35;;;;;;;5.30;3.10;;;;;;;16.68;74.24;98857.71;223917;180;145797;-65
2023/06/28 22:43:55;;;;;;;3.20;2.80;;;;;;;16.66;74.37;98855.66;224083;181;139020;-66
2023/06/28 22:48:59;;;;;;;3.00;2.60;;;;;;;16.62;74.66;98868.76;223860;181;135722;-65
2023/06/28 22:54:03;;;;;;;3.30;2.70;;;;;;;16.62;74.87;98867.53;223899;180;143893;-66
2023/06/28 22:59:06;;;;;;;3.10;2.80;;;;;;;16.65;74.88;98868.64;223912;180;139115;-65
2023/06/28 23:04:10;;;;;;;3.40;3.10;;;;;;;16.68;75.08;98868.58;223769;180;137329;-66
2023/06/28 23:09:14;;;;;;;4.90;3.40;;;;;;;16.71;75.06;98865.31;223594;177;145376;-67
2023/06/28 23:14:25;;;;;;;4.80;3.40;;;;;;;16.67;75.00;98867.07;223870;181;138130;-65
2023/06/28 23:19:31;;;;;;;3.50;3.20;;;;;;;16.65;75.46;98856.85;223752;181;137578;-64
2023/06/28 23:24:36;;;;;;;5.00;3.90;;;;;;;16.73;75.47;98858.12;223797;181;145688;-69
2023/06/28 23:29:41;;;;;;;4.50;3.90;;;;;;;16.75;75.39;98854.73;223728;181;139811;-66
2023/06/28 23:34:48;;;;;;;6.10;4.30;;;;;;;16.74;75.38;98858.18;223762;181;137985;-67
2023/06/28 23:39:51;;;;;;;8.80;4.10;;;;;;;16.76;75.29;98857.70;223762;181;145652;-64
2023/06/28 23:44:55;;;;;;;5.70;4.10;;;;;;;16.79;75.46;98856.54;223724;181;138743;-68
2023/06/28 23:50:01;;;;;;;8.90;4.60;;;;;;;16.82;75.49;98859.35;223902;181;136709;-66
2023/06/28 23:55:05;;;;;;;7.30;5.40;;;;;;;16.88;75.47;98866.49;223787;181;145232;-66
